sensor_id;sensor_type;location;lat;lon;timestamp;temperature;humidity
8882;DHT22;4477;48.736;9.176;2022-12-29T01:43:54;3.70;99.90
8882;DHT22;4477;48.736;9.176;2022-12-29T01:46:25;8.20;92.60
8882;DHT22;4477;48.736;9.176;2022-12-29T01:48:55;8.10;92.70
8882;DHT22;4477;48.736;9.176;2022-12-29T01:51:25;8.20;92.70
8882;DHT22;4477;48.736;9.176;2022-12-29T01:53:58;8.20;92.60
8882;DHT22;4477;48.736;9.176;2022-12-29T01:56:27;8.20;92.50
8882;DHT22;4477;48.736;9.176;2022-12-29T01:58:58;8.30;92.40
8882;DHT22;4477;48.736;9.176;2022-12-29T02:01:27;8.40;92.00
8882;DHT22;4477;48.736;9.176;2022-12-29T02:03:54;8.40;92.00
8882;DHT22;4477;48.736;9.176;2022-12-29T02:06:23;8.50;92.00
8882;DHT22;4477;48.736;9.176;2022-12-29T02:08:53;8.40;91.90
8882;DHT22;4477;48.736;9.176;2022-12-29T02:11:23;8.50;91.60
8882;DHT22;4477;48.736;9.176;2022-12-29T02:13:50;8.50;91.60
8882;DHT22;4477;48.736;9.176;2022-12-29T02:16:31;8.50;91.80
8882;DHT22;4477;48.736;9.176;2022-12-29T02:19:21;8.30;91.80
8882;DHT22;4477;48.736;9.176;2022-12-29T02:22:02;8.30;91.80
8882;DHT22;4477;48.736;9.176;2022-12-29T02:27:54;8.20;92.10
8882;DHT22;4477;48.736;9.176;2022-12-29T02:30:46;7.90;92.60
8882;DHT22;4477;48.736;9.176;2022-12-29T02:33:23;8.00;92.50
8882;DHT22;4477;48.736;9.176;2022-12-29T02:35:58;8.20;92.00
8882;DHT22;4477;48.736;9.176;2022-12-29T02:38:36;8.50;91.60
8882;DHT22;4477;48.736;9.176;2022-12-29T02:41:08;8.50;91.50
8882;DHT22;4477;48.736;9.176;2022-12-29T02:43:42;8.50;91.50
8882;DHT22;4477;48.736;9.176;2022-12-29T02:46:17;8.60;91.50
8882;DHT22;4477;48.736;9.176;2022-12-29T02:48:51;8.50;91.20
8882;DHT22;4477;48.736;9.176;2022-12-29T02:51:23;8.60;91.20
8882;DHT22;4477;48.736;9.176;2022-12-29T02:53:50;8.70;91.10
8882;DHT22;4477;48.736;9.176;2022-12-29T02:56:36;8.60;91.00
8882;DHT22;4477;48.736;9.176;2022-12-29T02:59:03;8.70;91.00
8882;DHT22;4477;48.736;9.176;2022-12-29T03:01:39;8.70;91.10
8882;DHT22;4477;48.736;9.176;2022-12-29T03:04:34;8.60;91.10
8882;DHT22;4477;48.736;9.176;2022-12-29T03:07:11;8.70;90.90
8882;DHT22;4477;48.736;9.176;2022-12-29T03:09:47;8.70;90.90
8882;DHT22;4477;48.736;9.176;2022-12-29T03:12:24;8.70;90.90
8882;DHT22;4477;48.736;9.176;2022-12-29T03:15:15;8.70;90.80
8882;DHT22;4477;48.736;9.176;2022-12-29T03:18:10;8.70;90.70
8882;DHT22;4477;48.736;9.176;2022-12-29T03:20:39;8.70;90.70
8882;DHT22;4477;48.736;9.176;2022-12-29T03:23:08;8.60;90.80
8882;DHT22;4477;48.736;9.176;2022-12-29T03:25:39;8.60;90.90
8882;DHT22;4477;48.736;9.176;2022-12-29T03:28:08;8.70;91.00
8882;DHT22;4477;48.736;9.176;2022-12-29T03:30:37;8.80;90.50
8882;DHT22;4477;48.736;9.176;2022-12-29T03:33:10;8.80;90.40
8882;DHT22;4477;48.736;9.176;2022-12-29T03:35:40;8.80;90.50
8882;DHT22;4477;48.736;9.176;2022-12-29T03:38:12;8.80;90.70
8882;DHT22;4477;48.736;9.176;2022-12-29T03:40:42;8.80;90.80
8882;DHT22;4477;48.736;9.176;2022-12-29T03:43:10;9.00;90.40
8882;DHT22;4477;48.736;9.176;2022-12-29T03:45:38;9.00;90.40
8882;DHT22;4477;48.736;9.176;2022-12-29T03:48:06;9.10;90.50
8882;DHT22;4477;48.736;9.176;2022-12-29T03:50:33;9.10;90.50
8882;DHT22;4477;48.736;9.176;2022-12-29T03:53:00;9.10;90.50
8882;DHT22;4477;48.736;9.176;2022-12-29T03:55:27;9.20;90.50
8882;DHT22;4477;48.736;9.176;2022-12-29T03:57:54;9.10;90.50
8882;DHT22;4477;48.736;9.176;2022-12-29T04:00:20;9.00;90.50
8882;DHT22;4477;48.736;9.176;2022-12-29T04:02:47;9.00;90.50
8882;DHT22;4477;48.736;9.176;2022-12-29T04:05:15;9.00;90.70
8882;DHT22;4477;48.736;9.176;2022-12-29T04:07:42;8.70;91.30
8882;DHT22;4477;48.736;9.176;2022-12-29T04:10:09;8.80;91.40
8882;DHT22;4477;48.736;9.176;2022-12-29T04:12:36;8.90;91.40
8882;DHT22;4477;48.736;9.176;2022-12-29T04:15:03;8.90;91.40
8882;DHT22;4477;48.736;9.176;2022-12-29T04:17:30;8.90;91.50
8882;DHT22;4477;48.736;9.176;2022-12-29T04:19:57;8.90;91.50
8882;DHT22;4477;48.736;9.176;2022-12-29T04:22:39;8.90;91.60
8882;DHT22;4477;48.736;9.176;2022-12-29T04:25:07;8.80;91.90
8882;DHT22;4477;48.736;9.176;2022-12-29T04:27:34;8.60;92.30
8882;DHT22;4477;48.736;9.176;2022-12-29T09:22:41;8.70;92.90
8882;DHT22;4477;48.736;9.176;2022-12-29T09:25:09;10.30;88.40
8882;DHT22;4477;48.736;9.176;2022-12-29T09:27:36;10.30;88.20
8882;DHT22;4477;48.736;9.176;2022-12-29T09:30:04;10.30;88.60
8882;DHT22;4477;48.736;9.176;2022-12-29T09:32:31;10.40;88.10
8882;DHT22;4477;48.736;9.176;2022-12-29T09:34:59;10.50;87.40
8882;DHT22;4477;48.736;9.176;2022-12-29T09:37:26;10.60;86.90
8882;DHT22;4477;48.736;9.176;2022-12-29T09:39:53;10.60;86.60
8882;DHT22;4477;48.736;9.176;2022-12-29T09:42:25;10.70;86.60
8882;DHT22;4477;48.736;9.176;2022-12-29T09:45:03;10.70;86.90
8882;DHT22;4477;48.736;9.176;2022-12-29T09:47:31;10.80;86.30
8882;DHT22;4477;48.736;9.176;2022-12-29T09:50:03;10.80;85.90
8882;DHT22;4477;48.736;9.176;2022-12-29T09:52:34;10.80;85.80
8882;DHT22;4477;48.736;9.176;2022-12-29T09:55:03;10.80;85.90
8882;DHT22;4477;48.736;9.176;2022-12-29T09:57:35;11.00;85.30
8882;DHT22;4477;48.736;9.176;2022-12-29T11:34:19;11.20;85.30
8882;DHT22;4477;48.736;9.176;2022-12-29T11:36:47;11.20;89.20
8882;DHT22;4477;48.736;9.176;2022-12-29T11:39:29;11.20;90.60
8882;DHT22;4477;48.736;9.176;2022-12-29T11:41:57;10.80;91.60
8882;DHT22;4477;48.736;9.176;2022-12-29T11:51:51;10.60;92.60
8882;DHT22;4477;48.736;9.176;2022-12-29T11:54:24;10.80;92.60
8882;DHT22;4477;48.736;9.176;2022-12-29T11:56:53;11.00;92.00
8882;DHT22;4477;48.736;9.176;2022-12-29T11:59:43;11.00;91.80
8882;DHT22;4477;48.736;9.176;2022-12-29T12:02:49;11.10;91.60
8882;DHT22;4477;48.736;9.176;2022-12-29T12:05:29;11.20;91.30
8882;DHT22;4477;48.736;9.176;2022-12-29T12:08:03;11.10;90.90
8882;DHT22;4477;48.736;9.176;2022-12-29T12:10:33;11.20;91.00
8882;DHT22;4477;48.736;9.176;2022-12-29T12:13:08;11.10;91.20
8882;DHT22;4477;48.736;9.176;2022-12-29T12:15:40;11.10;91.40
8882;DHT22;4477;48.736;9.176;2022-12-29T12:18:11;11.00;91.20
8882;DHT22;4477;48.736;9.176;2022-12-29T12:20:45;11.00;91.30
8882;DHT22;4477;48.736;9.176;2022-12-29T12:23:36;10.90;91.60
8882;DHT22;4477;48.736;9.176;2022-12-29T12:26:10;10.90;91.90
8882;DHT22;4477;48.736;9.176;2022-12-29T12:28:42;10.80;92.20
8882;DHT22;4477;48.736;9.176;2022-12-29T12:31:25;11.00;92.20
8882;DHT22;4477;48.736;9.176;2022-12-29T12:33:58;11.00;92.50
8882;DHT22;4477;48.736;9.176;2022-12-29T12:37:00;11.00;92.70
8882;DHT22;4477;48.736;9.176;2022-12-29T12:39:35;11.00;93.40
8882;DHT22;4477;48.736;9.176;2022-12-29T12:42:18;10.60;94.90
8882;DHT22;4477;48.736;9.176;2022-12-29T12:44:56;10.30;97.10
8882;DHT22;4477;48.736;9.176;2022-12-29T12:47:42;10.00;99.30
8882;DHT22;4477;48.736;9.176;2022-12-29T12:50:32;9.80;99.90
8882;DHT22;4477;48.736;9.176;2022-12-29T12:53:24;9.70;99.90
8882;DHT22;4477;48.736;9.176;2022-12-29T12:56:32;9.80;99.90
8882;DHT22;4477;48.736;9.176;2022-12-29T12:59:09;10.00;99.90
8882;DHT22;4477;48.736;9.176;2022-12-29T13:01:45;10.10;99.90
8882;DHT22;4477;48.736;9.176;2022-12-29T13:04:37;10.30;99.90
8882;DHT22;4477;48.736;9.176;2022-12-29T13:07:16;10.90;99.30
8882;DHT22;4477;48.736;9.176;2022-12-29T13:10:03;12.10;95.80
8882;DHT22;4477;48.736;9.176;2022-12-29T14:23:28;12.70;94.00
8882;DHT22;4477;48.736;9.176;2022-12-29T14:26:14;10.20;99.10
8882;DHT22;4477;48.736;9.176;2022-12-29T14:28:42;10.10;99.90
8882;DHT22;4477;48.736;9.176;2022-12-29T14:31:37;10.10;99.90
8882;DHT22;4477;48.736;9.176;2022-12-29T14:34:37;10.10;99.90
8882;DHT22;4477;48.736;9.176;2022-12-29T14:37:17;10.30;99.90
8882;DHT22;4477;48.736;9.176;2022-12-29T14:39:49;10.30;99.50
8882;DHT22;4477;48.736;9.176;2022-12-29T14:42:29;10.30;99.50
8882;DHT22;4477;48.736;9.176;2022-12-29T14:45:00;10.10;99.90
8882;DHT22;4477;48.736;9.176;2022-12-29T14:47:32;10.00;99.90
8882;DHT22;4477;48.736;9.176;2022-12-29T14:50:04;9.80;99.90
8882;DHT22;4477;48.736;9.176;2022-12-29T14:52:44;9.80;99.90
8882;DHT22;4477;48.736;9.176;2022-12-29T14:55:39;9.90;99.90
8882;DHT22;4477;48.736;9.176;2022-12-29T14:58:14;9.90;99.90
8882;DHT22;4477;48.736;9.176;2022-12-29T15:00:42;9.90;99.90
8882;DHT22;4477;48.736;9.176;2022-12-29T15:03:16;9.70;99.90
8882;DHT22;4477;48.736;9.176;2022-12-29T15:05:46;9.70;99.90
8882;DHT22;4477;48.736;9.176;2022-12-29T15:08:19;9.60;99.90
8882;DHT22;4477;48.736;9.176;2022-12-29T15:10:53;9.60;99.90
8882;DHT22;4477;48.736;9.176;2022-12-29T15:13:23;9.60;99.90
8882;DHT22;4477;48.736;9.176;2022-12-29T15:15:51;9.70;99.90
8882;DHT22;4477;48.736;9.176;2022-12-29T15:18:24;9.60;99.90
8882;DHT22;4477;48.736;9.176;2022-12-29T15:20:53;9.50;99.90
8882;DHT22;4477;48.736;9.176;2022-12-29T15:23:21;9.50;99.90
8882;DHT22;4477;48.736;9.176;2022-12-29T15:25:53;9.50;99.90
8882;DHT22;4477;48.736;9.176;2022-12-29T15:28:20;9.50;99.90
8882;DHT22;4477;48.736;9.176;2022-12-29T15:30:53;9.50;99.90
8882;DHT22;4477;48.736;9.176;2022-12-29T15:33:22;9.50;99.90
8882;DHT22;4477;48.736;9.176;2022-12-29T15:35:51;9.60;99.90
8882;DHT22;4477;48.736;9.176;2022-12-29T15:38:21;9.70;99.90
8882;DHT22;4477;48.736;9.176;2022-12-29T15:40:53;9.60;99.90
8882;DHT22;4477;48.736;9.176;2022-12-29T15:43:36;9.60;99.90
8882;DHT22;4477;48.736;9.176;2022-12-29T15:46:04;9.50;99.90
8882;DHT22;4477;48.736;9.176;2022-12-29T15:48:32;9.50;99.90
8882;DHT22;4477;48.736;9.176;2022-12-29T15:51:00;9.50;99.90
8882;DHT22;4477;48.736;9.176;2022-12-29T15:53:29;9.60;99.90
8882;DHT22;4477;48.736;9.176;2022-12-29T15:56:02;9.60;99.90
8882;DHT22;4477;48.736;9.176;2022-12-29T15:58:40;9.70;99.80
8882;DHT22;4477;48.736;9.176;2022-12-29T16:01:17;9.80;99.60
8882;DHT22;4477;48.736;9.176;2022-12-29T16:03:45;9.80;99.30
8882;DHT22;4477;48.736;9.176;2022-12-29T16:06:27;9.90;99.80
8882;DHT22;4477;48.736;9.176;2022-12-29T16:08:58;9.80;99.90
8882;DHT22;4477;48.736;9.176;2022-12-29T16:11:30;9.70;99.90
8882;DHT22;4477;48.736;9.176;2022-12-29T16:13:58;9.20;99.90
